sensor_id;sensor_type;location;lat;lon;timestamp;P1;durP1;ratioP1;P2;durP2;ratioP2
10132;SDS011;5106;50.926;7.080;2024-01-07T00:00:34;24.30;;;14.83;;
10132;SDS011;5106;50.926;7.080;2024-01-07T00:03:00;25.47;;;15.70;;
10132;SDS011;5106;50.926;7.080;2024-01-07T00:05:25;22.93;;;14.03;;
10132;SDS011;5106;50.926;7.080;2024-01-07T00:07:51;25.40;;;15.10;;
10132;SDS011;5106;50.926;7.080;2024-01-07T00:10:16;23.27;;;13.90;;
10132;SDS011;5106;50.926;7.080;2024-01-07T00:12:42;23.60;;;14.63;;
10132;SDS011;5106;50.926;7.080;2024-01-07T00:15:08;24.07;;;14.77;;
10132;SDS011;5106;50.926;7.080;2024-01-07T00:17:34;22.83;;;14.33;;
10132;SDS011;5106;50.926;7.080;2024-01-07T00:20:00;21.83;;;14.27;;
10132;SDS011;5106;50.926;7.080;2024-01-07T00:22:26;22.73;;;14.10;;
10132;SDS011;5106;50.926;7.080;2024-01-07T00:24:51;21.63;;;13.50;;
10132;SDS011;5106;50.926;7.080;2024-01-07T00:27:17;24.23;;;14.37;;
10132;SDS011;5106;50.926;7.080;2024-01-07T00:29:42;22.67;;;14.33;;
10132;SDS011;5106;50.926;7.080;2024-01-07T00:32:08;23.57;;;15.03;;
10132;SDS011;5106;50.926;7.080;2024-01-07T00:34:33;22.70;;;13.77;;
10132;SDS011;5106;50.926;7.080;2024-01-07T00:36:59;22.33;;;14.47;;
10132;SDS011;5106;50.926;7.080;2024-01-07T00:39:25;19.40;;;13.43;;
10132;SDS011;5106;50.926;7.080;2024-01-07T00:41:50;22.57;;;14.40;;
10132;SDS011;5106;50.926;7.080;2024-01-07T00:44:16;22.10;;;13.23;;
10132;SDS011;5106;50.926;7.080;2024-01-07T00:46:41;17.87;;;12.30;;
10132;SDS011;5106;50.926;7.080;2024-01-07T00:49:07;19.63;;;12.17;;
10132;SDS011;5106;50.926;7.080;2024-01-07T00:51:33;19.53;;;13.10;;
10132;SDS011;5106;50.926;7.080;2024-01-07T00:53:58;18.37;;;12.70;;
10132;SDS011;5106;50.926;7.080;2024-01-07T00:56:27;20.40;;;12.83;;
10132;SDS011;5106;50.926;7.080;2024-01-07T00:58:53;21.07;;;12.43;;
10132;SDS011;5106;50.926;7.080;2024-01-07T01:01:19;17.33;;;11.50;;
10132;SDS011;5106;50.926;7.080;2024-01-07T01:03:44;17.77;;;11.43;;
10132;SDS011;5106;50.926;7.080;2024-01-07T01:06:10;18.53;;;11.90;;
10132;SDS011;5106;50.926;7.080;2024-01-07T01:08:36;18.00;;;11.77;;
10132;SDS011;5106;50.926;7.080;2024-01-07T01:11:02;18.70;;;11.80;;
10132;SDS011;5106;50.926;7.080;2024-01-07T01:13:27;18.97;;;12.00;;
10132;SDS011;5106;50.926;7.080;2024-01-07T01:15:53;17.03;;;10.57;;
10132;SDS011;5106;50.926;7.080;2024-01-07T01:18:20;17.93;;;11.30;;
10132;SDS011;5106;50.926;7.080;2024-01-07T01:20:46;16.63;;;10.87;;
10132;SDS011;5106;50.926;7.080;2024-01-07T01:23:11;19.63;;;10.90;;
10132;SDS011;5106;50.926;7.080;2024-01-07T01:25:37;16.03;;;11.03;;
10132;SDS011;5106;50.926;7.080;2024-01-07T01:28:04;17.23;;;10.80;;
10132;SDS011;5106;50.926;7.080;2024-01-07T01:30:30;16.80;;;10.20;;
10132;SDS011;5106;50.926;7.080;2024-01-07T01:32:56;14.50;;;9.30;;
10132;SDS011;5106;50.926;7.080;2024-01-07T01:35:22;14.10;;;9.93;;
10132;SDS011;5106;50.926;7.080;2024-01-07T01:37:48;17.93;;;10.80;;
10132;SDS011;5106;50.926;7.080;2024-01-07T01:40:13;13.07;;;9.40;;
10132;SDS011;5106;50.926;7.080;2024-01-07T01:42:44;13.43;;;9.37;;
10132;SDS011;5106;50.926;7.080;2024-01-07T01:45:10;14.47;;;9.90;;
10132;SDS011;5106;50.926;7.080;2024-01-07T01:47:35;13.87;;;9.07;;
10132;SDS011;5106;50.926;7.080;2024-01-07T01:50:01;12.90;;;9.20;;
10132;SDS011;5106;50.926;7.080;2024-01-07T01:52:27;13.47;;;9.37;;
10132;SDS011;5106;50.926;7.080;2024-01-07T01:54:53;14.87;;;9.83;;
10132;SDS011;5106;50.926;7.080;2024-01-07T01:57:19;11.63;;;7.93;;
10132;SDS011;5106;50.926;7.080;2024-01-07T01:59:47;11.23;;;8.30;;
10132;SDS011;5106;50.926;7.080;2024-01-07T02:02:13;11.73;;;8.00;;
10132;SDS011;5106;50.926;7.080;2024-01-07T02:04:39;10.97;;;7.40;;
10132;SDS011;5106;50.926;7.080;2024-01-07T02:07:05;9.37;;;7.13;;
10132;SDS011;5106;50.926;7.080;2024-01-07T02:09:31;11.17;;;7.70;;
10132;SDS011;5106;50.926;7.080;2024-01-07T02:12:00;11.43;;;8.10;;
10132;SDS011;5106;50.926;7.080;2024-01-07T02:14:27;10.30;;;7.37;;
10132;SDS011;5106;50.926;7.080;2024-01-07T02:16:52;10.97;;;7.23;;
10132;SDS011;5106;50.926;7.080;2024-01-07T02:19:18;13.57;;;8.30;;
10132;SDS011;5106;50.926;7.080;2024-01-07T02:21:46;11.37;;;8.50;;
10132;SDS011;5106;50.926;7.080;2024-01-07T02:24:15;14.57;;;9.20;;
10132;SDS011;5106;50.926;7.080;2024-01-07T02:26:41;13.10;;;9.17;;
10132;SDS011;5106;50.926;7.080;2024-01-07T02:29:07;14.73;;;8.90;;
10132;SDS011;5106;50.926;7.080;2024-01-07T02:31:33;12.00;;;8.50;;
10132;SDS011;5106;50.926;7.080;2024-01-07T02:33:58;11.93;;;8.47;;
10132;SDS011;5106;50.926;7.080;2024-01-07T02:36:24;12.47;;;8.33;;
10132;SDS011;5106;50.926;7.080;2024-01-07T02:38:49;15.47;;;10.07;;
10132;SDS011;5106;50.926;7.080;2024-01-07T02:41:15;16.63;;;10.73;;
10132;SDS011;5106;50.926;7.080;2024-01-07T02:43:40;16.23;;;10.40;;
10132;SDS011;5106;50.926;7.080;2024-01-07T02:46:06;16.13;;;10.80;;
10132;SDS011;5106;50.926;7.080;2024-01-07T02:48:32;18.40;;;11.80;;
10132;SDS011;5106;50.926;7.080;2024-01-07T02:50:58;19.77;;;12.57;;
10132;SDS011;5106;50.926;7.080;2024-01-07T02:53:23;20.77;;;12.50;;
10132;SDS011;5106;50.926;7.080;2024-01-07T02:55:49;18.37;;;12.17;;
10132;SDS011;5106;50.926;7.080;2024-01-07T02:58:14;16.50;;;11.07;;
10132;SDS011;5106;50.926;7.080;2024-01-07T03:00:40;20.57;;;13.60;;
10132;SDS011;5106;50.926;7.080;2024-01-07T03:03:06;20.00;;;11.73;;
10132;SDS011;5106;50.926;7.080;2024-01-07T03:05:32;21.37;;;13.40;;
10132;SDS011;5106;50.926;7.080;2024-01-07T03:07:58;19.03;;;12.37;;
10132;SDS011;5106;50.926;7.080;2024-01-07T03:10:25;18.00;;;12.13;;
10132;SDS011;5106;50.926;7.080;2024-01-07T03:12:50;17.37;;;11.77;;
10132;SDS011;5106;50.926;7.080;2024-01-07T03:15:16;19.87;;;12.83;;
10132;SDS011;5106;50.926;7.080;2024-01-07T03:17:42;16.97;;;11.93;;
10132;SDS011;5106;50.926;7.080;2024-01-07T03:20:08;16.47;;;11.83;;
10132;SDS011;5106;50.926;7.080;2024-01-07T03:22:34;17.23;;;11.80;;
10132;SDS011;5106;50.926;7.080;2024-01-07T03:25:00;16.53;;;11.40;;
10132;SDS011;5106;50.926;7.080;2024-01-07T03:27:26;15.87;;;11.53;;
10132;SDS011;5106;50.926;7.080;2024-01-07T03:29:51;17.07;;;12.03;;
10132;SDS011;5106;50.926;7.080;2024-01-07T03:32:17;15.47;;;11.23;;
10132;SDS011;5106;50.926;7.080;2024-01-07T03:34:43;18.03;;;12.43;;
10132;SDS011;5106;50.926;7.080;2024-01-07T03:37:08;18.07;;;11.47;;
10132;SDS011;5106;50.926;7.080;2024-01-07T03:39:34;17.63;;;12.37;;
10132;SDS011;5106;50.926;7.080;2024-01-07T03:42:00;17.97;;;12.13;;
10132;SDS011;5106;50.926;7.080;2024-01-07T03:44:25;15.33;;;10.80;;
10132;SDS011;5106;50.926;7.080;2024-01-07T03:46:51;14.47;;;10.87;;
10132;SDS011;5106;50.926;7.080;2024-01-07T03:49:17;15.20;;;10.10;;
10132;SDS011;5106;50.926;7.080;2024-01-07T03:51:43;13.53;;;10.23;;
10132;SDS011;5106;50.926;7.080;2024-01-07T03:54:09;14.53;;;9.93;;
10132;SDS011;5106;50.926;7.080;2024-01-07T03:56:34;13.33;;;9.83;;
10132;SDS011;5106;50.926;7.080;2024-01-07T03:59:00;13.63;;;9.63;;
10132;SDS011;5106;50.926;7.080;2024-01-07T04:01:25;14.50;;;9.97;;
10132;SDS011;5106;50.926;7.080;2024-01-07T04:03:51;12.33;;;8.97;;
10132;SDS011;5106;50.926;7.080;2024-01-07T04:06:16;11.53;;;8.90;;
10132;SDS011;5106;50.926;7.080;2024-01-07T04:08:42;12.47;;;8.83;;
10132;SDS011;5106;50.926;7.080;2024-01-07T04:11:08;12.60;;;8.57;;
10132;SDS011;5106;50.926;7.080;2024-01-07T04:13:33;13.60;;;8.47;;
10132;SDS011;5106;50.926;7.080;2024-01-07T04:15:59;11.80;;;8.57;;
10132;SDS011;5106;50.926;7.080;2024-01-07T04:18:24;11.93;;;8.63;;
10132;SDS011;5106;50.926;7.080;2024-01-07T04:20:50;13.37;;;9.33;;
10132;SDS011;5106;50.926;7.080;2024-01-07T04:23:15;14.47;;;9.10;;
10132;SDS011;5106;50.926;7.080;2024-01-07T04:25:41;14.03;;;9.23;;
10132;SDS011;5106;50.926;7.080;2024-01-07T04:28:09;12.20;;;8.57;;
10132;SDS011;5106;50.926;7.080;2024-01-07T04:30:35;12.17;;;8.77;;
10132;SDS011;5106;50.926;7.080;2024-01-07T04:33:00;14.47;;;9.97;;
10132;SDS011;5106;50.926;7.080;2024-01-07T04:35:26;11.70;;;8.60;;
10132;SDS011;5106;50.926;7.080;2024-01-07T04:37:51;13.77;;;9.50;;
10132;SDS011;5106;50.926;7.080;2024-01-07T04:40:17;13.40;;;8.93;;
10132;SDS011;5106;50.926;7.080;2024-01-07T04:42:43;13.53;;;9.50;;
10132;SDS011;5106;50.926;7.080;2024-01-07T04:45:08;13.30;;;9.40;;
10132;SDS011;5106;50.926;7.080;2024-01-07T04:47:34;13.73;;;9.73;;
10132;SDS011;5106;50.926;7.080;2024-01-07T04:50:00;14.50;;;9.70;;
10132;SDS011;5106;50.926;7.080;2024-01-07T04:52:26;13.20;;;9.57;;
10132;SDS011;5106;50.926;7.080;2024-01-07T04:54:52;13.60;;;9.90;;
10132;SDS011;5106;50.926;7.080;2024-01-07T04:57:18;14.73;;;9.97;;
10132;SDS011;5106;50.926;7.080;2024-01-07T04:59:44;17.00;;;11.07;;
10132;SDS011;5106;50.926;7.080;2024-01-07T05:02:10;17.63;;;10.83;;
10132;SDS011;5106;50.926;7.080;2024-01-07T05:04:35;17.07;;;10.33;;
10132;SDS011;5106;50.926;7.080;2024-01-07T05:07:01;15.83;;;11.00;;
10132;SDS011;5106;50.926;7.080;2024-01-07T05:09:27;15.97;;;10.80;;
10132;SDS011;5106;50.926;7.080;2024-01-07T05:11:53;19.13;;;12.60;;
10132;SDS011;5106;50.926;7.080;2024-01-07T05:14:18;18.50;;;12.03;;
10132;SDS011;5106;50.926;7.080;2024-01-07T05:16:44;20.47;;;12.90;;
10132;SDS011;5106;50.926;7.080;2024-01-07T05:19:10;18.83;;;11.90;;
10132;SDS011;5106;50.926;7.080;2024-01-07T05:21:35;18.13;;;12.17;;
10132;SDS011;5106;50.926;7.080;2024-01-07T05:24:01;17.70;;;12.17;;
10132;SDS011;5106;50.926;7.080;2024-01-07T05:26:27;18.30;;;12.17;;
10132;SDS011;5106;50.926;7.080;2024-01-07T05:28:52;19.07;;;12.10;;
10132;SDS011;5106;50.926;7.080;2024-01-07T05:31:18;20.47;;;13.30;;
10132;SDS011;5106;50.926;7.080;2024-01-07T05:33:44;19.30;;;12.63;;
10132;SDS011;5106;50.926;7.080;2024-01-07T05:36:11;18.83;;;11.80;;
10132;SDS011;5106;50.926;7.080;2024-01-07T05:38:37;18.80;;;12.23;;
10132;SDS011;5106;50.926;7.080;2024-01-07T05:41:03;19.03;;;11.97;;
10132;SDS011;5106;50.926;7.080;2024-01-07T05:43:29;19.10;;;12.53;;
10132;SDS011;5106;50.926;7.080;2024-01-07T05:45:55;16.43;;;11.67;;
10132;SDS011;5106;50.926;7.080;2024-01-07T05:48:21;17.30;;;12.47;;
10132;SDS011;5106;50.926;7.080;2024-01-07T05:50:47;18.60;;;12.20;;
10132;SDS011;5106;50.926;7.080;2024-01-07T05:53:13;18.33;;;11.90;;
10132;SDS011;5106;50.926;7.080;2024-01-07T05:55:38;19.17;;;12.67;;
10132;SDS011;5106;50.926;7.080;2024-01-07T05:58:04;15.43;;;11.50;;
10132;SDS011;5106;50.926;7.080;2024-01-07T06:00:30;16.97;;;11.77;;
10132;SDS011;5106;50.926;7.080;2024-01-07T06:02:55;17.13;;;11.90;;
10132;SDS011;5106;50.926;7.080;2024-01-07T06:05:21;16.33;;;11.33;;
10132;SDS011;5106;50.926;7.080;2024-01-07T06:07:47;15.60;;;11.17;;
10132;SDS011;5106;50.926;7.080;2024-01-07T06:10:12;14.70;;;10.80;;
10132;SDS011;5106;50.926;7.080;2024-01-07T06:12:38;16.47;;;12.10;;
10132;SDS011;5106;50.926;7.080;2024-01-07T06:15:03;16.40;;;11.67;;
10132;SDS011;5106;50.926;7.080;2024-01-07T06:17:30;16.80;;;11.83;;
10132;SDS011;5106;50.926;7.080;2024-01-07T06:19:56;16.23;;;12.40;;
10132;SDS011;5106;50.926;7.080;2024-01-07T06:22:21;18.07;;;11.40;;
10132;SDS011;5106;50.926;7.080;2024-01-07T06:24:47;18.53;;;12.17;;
10132;SDS011;5106;50.926;7.080;2024-01-07T06:27:13;16.40;;;11.90;;
10132;SDS011;5106;50.926;7.080;2024-01-07T06:29:38;18.57;;;12.23;;
10132;SDS011;5106;50.926;7.080;2024-01-07T06:32:04;15.70;;;11.50;;
10132;SDS011;5106;50.926;7.080;2024-01-07T06:34:30;14.47;;;10.93;;
10132;SDS011;5106;50.926;7.080;2024-01-07T06:36:55;16.43;;;11.77;;
10132;SDS011;5106;50.926;7.080;2024-01-07T06:39:21;16.27;;;12.03;;
10132;SDS011;5106;50.926;7.080;2024-01-07T06:41:47;15.57;;;11.57;;
10132;SDS011;5106;50.926;7.080;2024-01-07T06:44:12;18.13;;;11.63;;
10132;SDS011;5106;50.926;7.080;2024-01-07T06:46:38;16.10;;;11.87;;
10132;SDS011;5106;50.926;7.080;2024-01-07T06:49:03;16.57;;;11.60;;
10132;SDS011;5106;50.926;7.080;2024-01-07T06:51:29;16.83;;;11.37;;
10132;SDS011;5106;50.926;7.080;2024-01-07T06:53:54;17.40;;;12.20;;
10132;SDS011;5106;50.926;7.080;2024-01-07T06:56:20;16.23;;;11.93;;
10132;SDS011;5106;50.926;7.080;2024-01-07T06:58:46;16.90;;;11.70;;
10132;SDS011;5106;50.926;7.080;2024-01-07T07:01:11;15.97;;;11.57;;
10132;SDS011;5106;50.926;7.080;2024-01-07T07:03:37;16.67;;;11.17;;
10132;SDS011;5106;50.926;7.080;2024-01-07T07:06:04;16.07;;;11.63;;
10132;SDS011;5106;50.926;7.080;2024-01-07T07:08:30;15.97;;;11.47;;
10132;SDS011;5106;50.926;7.080;2024-01-07T07:10:55;13.23;;;10.33;;
10132;SDS011;5106;50.926;7.080;2024-01-07T07:13:21;14.13;;;10.80;;
10132;SDS011;5106;50.926;7.080;2024-01-07T07:15:46;13.83;;;10.40;;
10132;SDS011;5106;50.926;7.080;2024-01-07T07:18:12;14.23;;;10.50;;
10132;SDS011;5106;50.926;7.080;2024-01-07T07:20:38;13.00;;;10.10;;
10132;SDS011;5106;50.926;7.080;2024-01-07T07:23:03;13.20;;;9.90;;
10132;SDS011;5106;50.926;7.080;2024-01-07T07:25:29;12.83;;;9.97;;
10132;SDS011;5106;50.926;7.080;2024-01-07T07:27:54;13.40;;;10.27;;
10132;SDS011;5106;50.926;7.080;2024-01-07T07:30:21;11.70;;;9.17;;
10132;SDS011;5106;50.926;7.080;2024-01-07T07:32:47;14.77;;;10.00;;
10132;SDS011;5106;50.926;7.080;2024-01-07T07:35:12;14.67;;;10.47;;
10132;SDS011;5106;50.926;7.080;2024-01-07T07:37:38;18.53;;;10.37;;
10132;SDS011;5106;50.926;7.080;2024-01-07T07:40:04;13.03;;;9.53;;
10132;SDS011;5106;50.926;7.080;2024-01-07T07:42:30;14.93;;;10.87;;
10132;SDS011;5106;50.926;7.080;2024-01-07T07:44:55;13.53;;;10.30;;
10132;SDS011;5106;50.926;7.080;2024-01-07T07:47:21;13.90;;;9.90;;
10132;SDS011;5106;50.926;7.080;2024-01-07T07:49:46;12.97;;;9.60;;
10132;SDS011;5106;50.926;7.080;2024-01-07T07:52:12;11.47;;;8.77;;
10132;SDS011;5106;50.926;7.080;2024-01-07T07:54:39;11.33;;;8.60;;
10132;SDS011;5106;50.926;7.080;2024-01-07T07:57:05;12.03;;;8.90;;
10132;SDS011;5106;50.926;7.080;2024-01-07T07:59:30;11.97;;;8.33;;
10132;SDS011;5106;50.926;7.080;2024-01-07T08:01:56;11.73;;;8.70;;
10132;SDS011;5106;50.926;7.080;2024-01-07T08:04:22;11.10;;;8.60;;
10132;SDS011;5106;50.926;7.080;2024-01-07T08:06:47;11.80;;;9.20;;
10132;SDS011;5106;50.926;7.080;2024-01-07T08:09:13;11.87;;;8.90;;
10132;SDS011;5106;50.926;7.080;2024-01-07T08:11:38;11.30;;;8.77;;
10132;SDS011;5106;50.926;7.080;2024-01-07T08:14:04;11.00;;;8.00;;
10132;SDS011;5106;50.926;7.080;2024-01-07T08:16:31;11.50;;;8.63;;
10132;SDS011;5106;50.926;7.080;2024-01-07T08:18:56;10.20;;;7.77;;
10132;SDS011;5106;50.926;7.080;2024-01-07T08:21:22;10.63;;;8.10;;
10132;SDS011;5106;50.926;7.080;2024-01-07T08:23:48;12.80;;;8.73;;
10132;SDS011;5106;50.926;7.080;2024-01-07T08:26:20;12.10;;;9.40;;
10132;SDS011;5106;50.926;7.080;2024-01-07T08:28:45;11.83;;;8.67;;
10132;SDS011;5106;50.926;7.080;2024-01-07T08:31:11;11.57;;;8.37;;
10132;SDS011;5106;50.926;7.080;2024-01-07T08:33:37;11.20;;;8.40;;
10132;SDS011;5106;50.926;7.080;2024-01-07T08:36:02;11.50;;;8.57;;
10132;SDS011;5106;50.926;7.080;2024-01-07T08:38:29;11.93;;;9.00;;
10132;SDS011;5106;50.926;7.080;2024-01-07T08:40:55;12.20;;;9.07;;
10132;SDS011;5106;50.926;7.080;2024-01-07T08:43:20;11.87;;;8.60;;
10132;SDS011;5106;50.926;7.080;2024-01-07T08:45:46;12.40;;;9.27;;
10132;SDS011;5106;50.926;7.080;2024-01-07T08:48:11;11.57;;;8.97;;
10132;SDS011;5106;50.926;7.080;2024-01-07T08:50:37;12.17;;;9.20;;
10132;SDS011;5106;50.926;7.080;2024-01-07T08:53:03;12.50;;;9.13;;
10132;SDS011;5106;50.926;7.080;2024-01-07T08:55:29;14.23;;;10.63;;
10132;SDS011;5106;50.926;7.080;2024-01-07T08:57:55;12.70;;;9.43;;
10132;SDS011;5106;50.926;7.080;2024-01-07T09:00:21;13.53;;;10.50;;
10132;SDS011;5106;50.926;7.080;2024-01-07T09:02:51;14.93;;;11.43;;
10132;SDS011;5106;50.926;7.080;2024-01-07T09:05:16;15.03;;;10.93;;
10132;SDS011;5106;50.926;7.080;2024-01-07T09:07:42;16.03;;;11.13;;
10132;SDS011;5106;50.926;7.080;2024-01-07T09:10:08;14.83;;;10.37;;
10132;SDS011;5106;50.926;7.080;2024-01-07T09:12:36;13.43;;;9.90;;
10132;SDS011;5106;50.926;7.080;2024-01-07T09:15:02;15.70;;;10.80;;
10132;SDS011;5106;50.926;7.080;2024-01-07T09:17:31;14.00;;;10.67;;
10132;SDS011;5106;50.926;7.080;2024-01-07T09:19:56;14.40;;;10.73;;
10132;SDS011;5106;50.926;7.080;2024-01-07T09:22:22;15.10;;;10.63;;
10132;SDS011;5106;50.926;7.080;2024-01-07T09:24:47;13.23;;;9.53;;
10132;SDS011;5106;50.926;7.080;2024-01-07T09:27:13;14.30;;;9.87;;
10132;SDS011;5106;50.926;7.080;2024-01-07T09:29:39;13.80;;;10.07;;
10132;SDS011;5106;50.926;7.080;2024-01-07T09:32:05;15.03;;;10.20;;
10132;SDS011;5106;50.926;7.080;2024-01-07T09:34:30;13.20;;;9.20;;
10132;SDS011;5106;50.926;7.080;2024-01-07T09:36:56;13.50;;;8.57;;
10132;SDS011;5106;50.926;7.080;2024-01-07T09:39:22;13.57;;;9.07;;
10132;SDS011;5106;50.926;7.080;2024-01-07T09:41:47;12.23;;;8.97;;
10132;SDS011;5106;50.926;7.080;2024-01-07T09:44:13;11.97;;;8.77;;
10132;SDS011;5106;50.926;7.080;2024-01-07T09:46:39;13.00;;;9.53;;
10132;SDS011;5106;50.926;7.080;2024-01-07T09:49:06;13.43;;;9.73;;
10132;SDS011;5106;50.926;7.080;2024-01-07T09:51:33;14.20;;;10.33;;
10132;SDS011;5106;50.926;7.080;2024-01-07T09:54:02;14.97;;;10.33;;
10132;SDS011;5106;50.926;7.080;2024-01-07T09:56:42;12.97;;;9.77;;
10132;SDS011;5106;50.926;7.080;2024-01-07T09:59:11;12.77;;;8.80;;
10132;SDS011;5106;50.926;7.080;2024-01-07T10:01:40;10.53;;;8.17;;
10132;SDS011;5106;50.926;7.080;2024-01-07T10:04:06;9.13;;;8.07;;
10132;SDS011;5106;50.926;7.080;2024-01-07T10:06:31;9.87;;;7.50;;
10132;SDS011;5106;50.926;7.080;2024-01-07T10:08:58;8.77;;;6.73;;
10132;SDS011;5106;50.926;7.080;2024-01-07T10:11:24;9.83;;;7.37;;
10132;SDS011;5106;50.926;7.080;2024-01-07T10:13:49;10.07;;;7.43;;
10132;SDS011;5106;50.926;7.080;2024-01-07T10:16:18;9.57;;;7.47;;
10132;SDS011;5106;50.926;7.080;2024-01-07T10:18:44;8.63;;;6.70;;
10132;SDS011;5106;50.926;7.080;2024-01-07T10:21:09;7.87;;;6.40;;
10132;SDS011;5106;50.926;7.080;2024-01-07T10:23:35;7.87;;;6.53;;
10132;SDS011;5106;50.926;7.080;2024-01-07T10:26:00;7.63;;;6.13;;
10132;SDS011;5106;50.926;7.080;2024-01-07T10:28:27;7.57;;;6.10;;
10132;SDS011;5106;50.926;7.080;2024-01-07T10:30:53;6.37;;;5.37;;
10132;SDS011;5106;50.926;7.080;2024-01-07T10:33:18;6.63;;;5.93;;
10132;SDS011;5106;50.926;7.080;2024-01-07T10:36:05;6.70;;;5.90;;
10132;SDS011;5106;50.926;7.080;2024-01-07T10:38:31;8.77;;;6.47;;
10132;SDS011;5106;50.926;7.080;2024-01-07T10:41:00;7.47;;;6.23;;
10132;SDS011;5106;50.926;7.080;2024-01-07T10:43:30;8.67;;;7.03;;
10132;SDS011;5106;50.926;7.080;2024-01-07T10:45:56;8.47;;;6.97;;
10132;SDS011;5106;50.926;7.080;2024-01-07T10:48:30;8.33;;;6.37;;
10132;SDS011;5106;50.926;7.080;2024-01-07T10:50:59;9.70;;;7.13;;
10132;SDS011;5106;50.926;7.080;2024-01-07T10:53:25;9.07;;;7.50;;
10132;SDS011;5106;50.926;7.080;2024-01-07T10:55:59;9.63;;;7.27;;
10132;SDS011;5106;50.926;7.080;2024-01-07T10:58:33;10.63;;;8.10;;
10132;SDS011;5106;50.926;7.080;2024-01-07T11:01:00;10.80;;;7.97;;
10132;SDS011;5106;50.926;7.080;2024-01-07T11:06:11;10.43;;;8.00;;
10132;SDS011;5106;50.926;7.080;2024-01-07T11:08:46;12.13;;;9.00;;
10132;SDS011;5106;50.926;7.080;2024-01-07T11:11:38;11.73;;;8.90;;
10132;SDS011;5106;50.926;7.080;2024-01-07T11:17:06;11.93;;;8.73;;
10132;SDS011;5106;50.926;7.080;2024-01-07T11:19:32;12.87;;;9.77;;
10132;SDS011;5106;50.926;7.080;2024-01-07T11:24:50;13.20;;;9.10;;
10132;SDS011;5106;50.926;7.080;2024-01-07T11:27:16;12.57;;;9.20;;
10132;SDS011;5106;50.926;7.080;2024-01-07T11:29:42;13.23;;;9.63;;
10132;SDS011;5106;50.926;7.080;2024-01-07T11:32:09;14.40;;;10.63;;
10132;SDS011;5106;50.926;7.080;2024-01-07T11:34:39;13.37;;;10.13;;
10132;SDS011;5106;50.926;7.080;2024-01-07T11:37:11;11.73;;;9.37;;
10132;SDS011;5106;50.926;7.080;2024-01-07T11:39:38;14.83;;;10.63;;
10132;SDS011;5106;50.926;7.080;2024-01-07T11:42:06;13.10;;;9.83;;
10132;SDS011;5106;50.926;7.080;2024-01-07T11:44:35;13.77;;;10.70;;
10132;SDS011;5106;50.926;7.080;2024-01-07T11:47:04;14.00;;;10.37;;
10132;SDS011;5106;50.926;7.080;2024-01-07T11:49:31;14.87;;;10.60;;
10132;SDS011;5106;50.926;7.080;2024-01-07T11:51:57;12.53;;;9.70;;
10132;SDS011;5106;50.926;7.080;2024-01-07T11:54:23;14.17;;;10.30;;
10132;SDS011;5106;50.926;7.080;2024-01-07T11:56:48;13.17;;;10.13;;
10132;SDS011;5106;50.926;7.080;2024-01-07T11:59:14;13.47;;;10.23;;
10132;SDS011;5106;50.926;7.080;2024-01-07T12:01:40;13.00;;;10.17;;
10132;SDS011;5106;50.926;7.080;2024-01-07T12:04:05;12.47;;;9.30;;
10132;SDS011;5106;50.926;7.080;2024-01-07T12:06:32;14.40;;;9.90;;
10132;SDS011;5106;50.926;7.080;2024-01-07T12:08:58;12.53;;;9.00;;
10132;SDS011;5106;50.926;7.080;2024-01-07T12:11:24;11.07;;;9.40;;
10132;SDS011;5106;50.926;7.080;2024-01-07T12:13:49;11.03;;;9.20;;
10132;SDS011;5106;50.926;7.080;2024-01-07T12:16:15;12.00;;;8.97;;
10132;SDS011;5106;50.926;7.080;2024-01-07T12:18:41;11.60;;;9.00;;
10132;SDS011;5106;50.926;7.080;2024-01-07T12:21:07;12.83;;;9.43;;
10132;SDS011;5106;50.926;7.080;2024-01-07T12:23:36;11.57;;;9.23;;
10132;SDS011;5106;50.926;7.080;2024-01-07T12:26:09;11.30;;;9.20;;
10132;SDS011;5106;50.926;7.080;2024-01-07T12:28:35;11.70;;;9.20;;
10132;SDS011;5106;50.926;7.080;2024-01-07T12:31:02;11.97;;;9.43;;
10132;SDS011;5106;50.926;7.080;2024-01-07T12:33:32;10.13;;;8.70;;
10132;SDS011;5106;50.926;7.080;2024-01-07T12:35:58;12.30;;;8.77;;
10132;SDS011;5106;50.926;7.080;2024-01-07T12:38:25;10.73;;;8.23;;
10132;SDS011;5106;50.926;7.080;2024-01-07T12:40:52;10.43;;;8.57;;
10132;SDS011;5106;50.926;7.080;2024-01-07T12:43:21;10.50;;;8.30;;
10132;SDS011;5106;50.926;7.080;2024-01-07T12:45:48;9.33;;;7.63;;
10132;SDS011;5106;50.926;7.080;2024-01-07T12:48:14;10.53;;;7.40;;
10132;SDS011;5106;50.926;7.080;2024-01-07T12:50:40;9.23;;;6.53;;
10132;SDS011;5106;50.926;7.080;2024-01-07T12:53:06;8.27;;;6.40;;
10132;SDS011;5106;50.926;7.080;2024-01-07T12:55:31;9.50;;;6.40;;
10132;SDS011;5106;50.926;7.080;2024-01-07T12:57:57;8.07;;;6.00;;
10132;SDS011;5106;50.926;7.080;2024-01-07T13:00:24;8.97;;;6.70;;
10132;SDS011;5106;50.926;7.080;2024-01-07T13:02:50;7.67;;;6.27;;
10132;SDS011;5106;50.926;7.080;2024-01-07T13:05:16;9.07;;;6.43;;
10132;SDS011;5106;50.926;7.080;2024-01-07T13:07:42;8.33;;;6.77;;
10132;SDS011;5106;50.926;7.080;2024-01-07T13:10:08;8.83;;;7.10;;
10132;SDS011;5106;50.926;7.080;2024-01-07T13:12:34;9.03;;;6.33;;
10132;SDS011;5106;50.926;7.080;2024-01-07T13:15:01;7.67;;;6.30;;
10132;SDS011;5106;50.926;7.080;2024-01-07T13:17:28;9.00;;;6.87;;
10132;SDS011;5106;50.926;7.080;2024-01-07T13:19:55;8.80;;;6.43;;
10132;SDS011;5106;50.926;7.080;2024-01-07T13:22:21;8.50;;;6.20;;
10132;SDS011;5106;50.926;7.080;2024-01-07T13:24:46;8.77;;;6.83;;
10132;SDS011;5106;50.926;7.080;2024-01-07T13:27:12;9.70;;;7.50;;
10132;SDS011;5106;50.926;7.080;2024-01-07T13:29:38;13.27;;;7.13;;
10132;SDS011;5106;50.926;7.080;2024-01-07T13:32:04;10.93;;;7.10;;
10132;SDS011;5106;50.926;7.080;2024-01-07T13:34:30;8.27;;;6.33;;
10132;SDS011;5106;50.926;7.080;2024-01-07T13:36:55;7.63;;;6.23;;
10132;SDS011;5106;50.926;7.080;2024-01-07T13:39:21;8.83;;;6.40;;
10132;SDS011;5106;50.926;7.080;2024-01-07T13:41:47;7.43;;;6.17;;
10132;SDS011;5106;50.926;7.080;2024-01-07T13:44:13;9.40;;;5.73;;
10132;SDS011;5106;50.926;7.080;2024-01-07T13:46:47;6.80;;;5.27;;
10132;SDS011;5106;50.926;7.080;2024-01-07T13:49:13;7.37;;;4.73;;
10132;SDS011;5106;50.926;7.080;2024-01-07T13:51:40;6.00;;;5.37;;
10132;SDS011;5106;50.926;7.080;2024-01-07T13:54:06;5.13;;;4.50;;
10132;SDS011;5106;50.926;7.080;2024-01-07T13:56:32;7.47;;;4.80;;
10132;SDS011;5106;50.926;7.080;2024-01-07T13:59:00;5.90;;;4.90;;
10132;SDS011;5106;50.926;7.080;2024-01-07T14:01:28;6.43;;;5.33;;
10132;SDS011;5106;50.926;7.080;2024-01-07T14:03:54;7.37;;;5.30;;
10132;SDS011;5106;50.926;7.080;2024-01-07T14:06:20;5.77;;;5.07;;
10132;SDS011;5106;50.926;7.080;2024-01-07T14:08:46;6.17;;;5.33;;
10132;SDS011;5106;50.926;7.080;2024-01-07T14:11:12;6.30;;;5.17;;
10132;SDS011;5106;50.926;7.080;2024-01-07T14:13:37;7.03;;;5.53;;
10132;SDS011;5106;50.926;7.080;2024-01-07T14:16:03;8.73;;;5.93;;
10132;SDS011;5106;50.926;7.080;2024-01-07T14:18:29;5.93;;;5.03;;
10132;SDS011;5106;50.926;7.080;2024-01-07T14:20:55;6.75;;;5.70;;
10132;SDS011;5106;50.926;7.080;2024-01-07T14:23:20;6.37;;;4.90;;
10132;SDS011;5106;50.926;7.080;2024-01-07T14:25:46;6.37;;;5.03;;
10132;SDS011;5106;50.926;7.080;2024-01-07T14:28:12;5.87;;;5.13;;
10132;SDS011;5106;50.926;7.080;2024-01-07T14:30:37;5.50;;;4.70;;
10132;SDS011;5106;50.926;7.080;2024-01-07T14:33:03;6.00;;;5.07;;
10132;SDS011;5106;50.926;7.080;2024-01-07T14:35:29;5.27;;;4.77;;
10132;SDS011;5106;50.926;7.080;2024-01-07T14:37:55;5.90;;;5.20;;
10132;SDS011;5106;50.926;7.080;2024-01-07T14:40:24;6.57;;;4.90;;
10132;SDS011;5106;50.926;7.080;2024-01-07T14:42:50;6.23;;;4.50;;
10132;SDS011;5106;50.926;7.080;2024-01-07T14:45:18;6.40;;;4.10;;
10132;SDS011;5106;50.926;7.080;2024-01-07T14:47:43;4.13;;;3.57;;